sensor_id;sensor_type;location;lat;lon;timestamp;temperature;humidity
7936;DHT22;4013;49.744;8.118;2022-09-09T00:00:24;17.00;99.90
7936;DHT22;4013;49.744;8.118;2022-09-09T00:02:57;17.00;99.90
7936;DHT22;4013;49.744;8.118;2022-09-09T00:05:32;16.90;99.90
7936;DHT22;4013;49.744;8.118;2022-09-09T00:08:03;16.90;99.90
7936;DHT22;4013;49.744;8.118;2022-09-09T00:10:37;16.90;99.90
7936;DHT22;4013;49.744;8.118;2022-09-09T00:13:14;16.90;99.90
7936;DHT22;4013;49.744;8.118;2022-09-09T00:15:47;16.90;99.90
7936;DHT22;4013;49.744;8.118;2022-09-09T00:18:22;16.90;99.90
7936;DHT22;4013;49.744;8.118;2022-09-09T00:20:56;16.80;99.90
7936;DHT22;4013;49.744;8.118;2022-09-09T00:23:27;16.70;99.90
7936;DHT22;4013;49.744;8.118;2022-09-09T00:26:02;16.70;99.90
7936;DHT22;4013;49.744;8.118;2022-09-09T00:28:36;16.70;99.90
7936;DHT22;4013;49.744;8.118;2022-09-09T00:31:12;16.70;99.90
7936;DHT22;4013;49.744;8.118;2022-09-09T00:33:39;16.80;99.90
7936;DHT22;4013;49.744;8.118;2022-09-09T00:36:13;16.70;99.90
7936;DHT22;4013;49.744;8.118;2022-09-09T00:38:43;16.70;99.90
7936;DHT22;4013;49.744;8.118;2022-09-09T00:41:18;16.80;99.90
7936;DHT22;4013;49.744;8.118;2022-09-09T00:43:55;16.80;99.90
7936;DHT22;4013;49.744;8.118;2022-09-09T00:46:41;16.80;99.90
7936;DHT22;4013;49.744;8.118;2022-09-09T00:49:19;16.80;99.90
7936;DHT22;4013;49.744;8.118;2022-09-09T00:51:59;16.80;99.90
7936;DHT22;4013;49.744;8.118;2022-09-09T00:54:38;16.80;99.90
7936;DHT22;4013;49.744;8.118;2022-09-09T00:57:17;16.80;99.90
7936;DHT22;4013;49.744;8.118;2022-09-09T00:59:47;16.80;99.90
7936;DHT22;4013;49.744;8.118;2022-09-09T01:02:25;16.80;99.90
7936;DHT22;4013;49.744;8.118;2022-09-09T01:04:53;16.80;99.90
7936;DHT22;4013;49.744;8.118;2022-09-09T01:07:21;16.70;99.90
7936;DHT22;4013;49.744;8.118;2022-09-09T01:09:55;16.70;99.90
7936;DHT22;4013;49.744;8.118;2022-09-09T01:12:33;16.70;99.90
7936;DHT22;4013;49.744;8.118;2022-09-09T01:15:08;16.70;99.90
7936;DHT22;4013;49.744;8.118;2022-09-09T01:17:46;16.60;99.90
7936;DHT22;4013;49.744;8.118;2022-09-09T01:20:18;16.70;99.90
7936;DHT22;4013;49.744;8.118;2022-09-09T01:23:00;16.70;99.90
7936;DHT22;4013;49.744;8.118;2022-09-09T01:28:47;16.60;99.90
7936;DHT22;4013;49.744;8.118;2022-09-09T01:31:17;16.60;99.90
7936;DHT22;4013;49.744;8.118;2022-09-09T01:33:45;16.60;99.90
7936;DHT22;4013;49.744;8.118;2022-09-09T01:36:16;16.60;99.90
7936;DHT22;4013;49.744;8.118;2022-09-09T01:38:44;16.50;99.90
7936;DHT22;4013;49.744;8.118;2022-09-09T01:41:11;16.50;99.90
7936;DHT22;4013;49.744;8.118;2022-09-09T01:43:38;16.50;99.90
7936;DHT22;4013;49.744;8.118;2022-09-09T01:46:06;16.50;99.90
7936;DHT22;4013;49.744;8.118;2022-09-09T01:48:34;16.60;99.90
7936;DHT22;4013;49.744;8.118;2022-09-09T01:51:01;16.60;99.90
7936;DHT22;4013;49.744;8.118;2022-09-09T01:53:28;16.60;99.90
7936;DHT22;4013;49.744;8.118;2022-09-09T01:56:02;16.70;99.90
7936;DHT22;4013;49.744;8.118;2022-09-09T01:58:44;16.60;99.90
7936;DHT22;4013;49.744;8.118;2022-09-09T02:01:21;16.70;99.90
7936;DHT22;4013;49.744;8.118;2022-09-09T02:03:53;16.70;99.90
7936;DHT22;4013;49.744;8.118;2022-09-09T02:06:27;16.70;99.90
7936;DHT22;4013;49.744;8.118;2022-09-09T02:08:56;16.60;99.90
7936;DHT22;4013;49.744;8.118;2022-09-09T02:11:27;16.60;99.90
7936;DHT22;4013;49.744;8.118;2022-09-09T02:13:57;16.50;99.90
7936;DHT22;4013;49.744;8.118;2022-09-09T02:16:32;16.60;99.90
7936;DHT22;4013;49.744;8.118;2022-09-09T02:19:02;16.60;99.90
7936;DHT22;4013;49.744;8.118;2022-09-09T02:21:31;16.60;99.90
7936;DHT22;4013;49.744;8.118;2022-09-09T02:24:03;16.60;99.90
7936;DHT22;4013;49.744;8.118;2022-09-09T02:26:32;16.60;99.90
7936;DHT22;4013;49.744;8.118;2022-09-09T02:29:02;16.60;99.90
7936;DHT22;4013;49.744;8.118;2022-09-09T02:31:31;16.50;99.90
7936;DHT22;4013;49.744;8.118;2022-09-09T02:34:01;16.50;99.90
7936;DHT22;4013;49.744;8.118;2022-09-09T02:36:32;16.40;99.90
7936;DHT22;4013;49.744;8.118;2022-09-09T02:39:01;16.40;99.90
7936;DHT22;4013;49.744;8.118;2022-09-09T02:41:36;16.50;99.90
7936;DHT22;4013;49.744;8.118;2022-09-09T02:44:08;16.50;99.90
7936;DHT22;4013;49.744;8.118;2022-09-09T02:46:55;16.50;99.90
7936;DHT22;4013;49.744;8.118;2022-09-09T02:49:28;16.60;99.90
7936;DHT22;4013;49.744;8.118;2022-09-09T02:52:02;16.60;99.90
7936;DHT22;4013;49.744;8.118;2022-09-09T02:54:32;16.60;99.90
7936;DHT22;4013;49.744;8.118;2022-09-09T02:57:06;16.70;99.90
7936;DHT22;4013;49.744;8.118;2022-09-09T02:59:35;16.70;99.90
7936;DHT22;4013;49.744;8.118;2022-09-09T03:02:03;16.70;99.90
7936;DHT22;4013;49.744;8.118;2022-09-09T03:04:30;16.70;99.90
7936;DHT22;4013;49.744;8.118;2022-09-09T03:06:58;16.70;99.90
7936;DHT22;4013;49.744;8.118;2022-09-09T03:09:25;16.70;99.90
7936;DHT22;4013;49.744;8.118;2022-09-09T03:11:52;16.60;99.90
7936;DHT22;4013;49.744;8.118;2022-09-09T03:14:20;16.70;99.90
7936;DHT22;4013;49.744;8.118;2022-09-09T03:16:50;16.70;99.90
7936;DHT22;4013;49.744;8.118;2022-09-09T03:19:19;16.70;99.90
7936;DHT22;4013;49.744;8.118;2022-09-09T03:21:46;16.70;99.90
7936;DHT22;4013;49.744;8.118;2022-09-09T03:24:13;16.70;99.90
7936;DHT22;4013;49.744;8.118;2022-09-09T03:26:41;16.60;99.90
7936;DHT22;4013;49.744;8.118;2022-09-09T03:29:10;16.60;99.90
7936;DHT22;4013;49.744;8.118;2022-09-09T03:31:38;16.50;99.90
7936;DHT22;4013;49.744;8.118;2022-09-09T03:34:05;16.60;99.90
7936;DHT22;4013;49.744;8.118;2022-09-09T03:36:33;16.50;99.90
7936;DHT22;4013;49.744;8.118;2022-09-09T03:39:00;16.50;99.90
7936;DHT22;4013;49.744;8.118;2022-09-09T03:41:29;16.50;99.90
7936;DHT22;4013;49.744;8.118;2022-09-09T03:43:56;16.50;99.90
7936;DHT22;4013;49.744;8.118;2022-09-09T03:46:24;16.60;99.90
7936;DHT22;4013;49.744;8.118;2022-09-09T03:48:51;16.60;99.90
7936;DHT22;4013;49.744;8.118;2022-09-09T03:51:20;16.60;99.90
7936;DHT22;4013;49.744;8.118;2022-09-09T03:53:49;16.60;99.90
7936;DHT22;4013;49.744;8.118;2022-09-09T03:56:16;16.70;99.90
7936;DHT22;4013;49.744;8.118;2022-09-09T03:58:43;16.70;99.90
7936;DHT22;4013;49.744;8.118;2022-09-09T04:01:11;16.80;99.90
7936;DHT22;4013;49.744;8.118;2022-09-09T04:03:39;16.70;99.90
7936;DHT22;4013;49.744;8.118;2022-09-09T04:06:08;16.70;99.90
7936;DHT22;4013;49.744;8.118;2022-09-09T04:08:37;16.70;99.90
7936;DHT22;4013;49.744;8.118;2022-09-09T04:11:06;16.70;99.90
7936;DHT22;4013;49.744;8.118;2022-09-09T04:13:33;16.70;99.90
7936;DHT22;4013;49.744;8.118;2022-09-09T04:16:02;16.60;99.90
7936;DHT22;4013;49.744;8.118;2022-09-09T04:18:30;16.50;99.90
7936;DHT22;4013;49.744;8.118;2022-09-09T04:20:57;16.50;99.90
7936;DHT22;4013;49.744;8.118;2022-09-09T04:23:24;16.50;99.90
7936;DHT22;4013;49.744;8.118;2022-09-09T04:25:54;16.50;99.90
7936;DHT22;4013;49.744;8.118;2022-09-09T04:28:23;16.40;99.90
7936;DHT22;4013;49.744;8.118;2022-09-09T04:30:51;16.30;99.90
7936;DHT22;4013;49.744;8.118;2022-09-09T04:33:19;16.30;99.90
7936;DHT22;4013;49.744;8.118;2022-09-09T04:35:47;16.30;99.90
7936;DHT22;4013;49.744;8.118;2022-09-09T04:38:15;16.30;99.90
7936;DHT22;4013;49.744;8.118;2022-09-09T04:40:43;16.30;99.90
7936;DHT22;4013;49.744;8.118;2022-09-09T04:43:10;16.30;99.90
7936;DHT22;4013;49.744;8.118;2022-09-09T04:45:38;16.30;99.90
7936;DHT22;4013;49.744;8.118;2022-09-09T04:48:06;16.30;99.90
7936;DHT22;4013;49.744;8.118;2022-09-09T04:50:33;16.30;99.90
7936;DHT22;4013;49.744;8.118;2022-09-09T04:53:00;16.30;99.90
7936;DHT22;4013;49.744;8.118;2022-09-09T04:55:28;16.30;99.90
7936;DHT22;4013;49.744;8.118;2022-09-09T04:57:55;16.20;99.90
7936;DHT22;4013;49.744;8.118;2022-09-09T05:00:23;16.20;99.90
7936;DHT22;4013;49.744;8.118;2022-09-09T05:02:51;16.10;99.90
7936;DHT22;4013;49.744;8.118;2022-09-09T05:05:18;16.10;99.90
7936;DHT22;4013;49.744;8.118;2022-09-09T05:07:45;16.00;99.90
7936;DHT22;4013;49.744;8.118;2022-09-09T05:10:13;16.00;99.90
7936;DHT22;4013;49.744;8.118;2022-09-09T05:12:42;16.00;99.90
7936;DHT22;4013;49.744;8.118;2022-09-09T05:15:09;16.00;99.90
7936;DHT22;4013;49.744;8.118;2022-09-09T05:17:37;16.00;99.90
7936;DHT22;4013;49.744;8.118;2022-09-09T05:20:06;16.00;99.90
7936;DHT22;4013;49.744;8.118;2022-09-09T05:22:33;15.90;99.90
7936;DHT22;4013;49.744;8.118;2022-09-09T05:25:00;15.90;99.90
7936;DHT22;4013;49.744;8.118;2022-09-09T05:27:27;15.90;99.90
7936;DHT22;4013;49.744;8.118;2022-09-09T05:29:57;16.00;99.90
7936;DHT22;4013;49.744;8.118;2022-09-09T05:32:24;15.90;99.90
7936;DHT22;4013;49.744;8.118;2022-09-09T05:34:51;15.90;99.90
7936;DHT22;4013;49.744;8.118;2022-09-09T05:37:20;15.90;99.90
7936;DHT22;4013;49.744;8.118;2022-09-09T05:39:48;15.90;99.90
7936;DHT22;4013;49.744;8.118;2022-09-09T05:42:15;15.90;99.90
7936;DHT22;4013;49.744;8.118;2022-09-09T05:44:42;15.90;99.90
7936;DHT22;4013;49.744;8.118;2022-09-09T05:47:10;15.90;99.90
7936;DHT22;4013;49.744;8.118;2022-09-09T05:49:37;16.00;99.90
7936;DHT22;4013;49.744;8.118;2022-09-09T05:52:04;16.00;99.90
7936;DHT22;4013;49.744;8.118;2022-09-09T05:54:33;15.90;99.90
7936;DHT22;4013;49.744;8.118;2022-09-09T05:56:59;15.90;99.90
7936;DHT22;4013;49.744;8.118;2022-09-09T05:59:26;15.90;99.90
7936;DHT22;4013;49.744;8.118;2022-09-09T06:01:53;15.90;99.90
7936;DHT22;4013;49.744;8.118;2022-09-09T06:04:21;15.90;99.90
7936;DHT22;4013;49.744;8.118;2022-09-09T06:06:50;16.00;99.90
7936;DHT22;4013;49.744;8.118;2022-09-09T06:09:17;16.10;99.90
7936;DHT22;4013;49.744;8.118;2022-09-09T06:11:47;16.30;99.90
7936;DHT22;4013;49.744;8.118;2022-09-09T06:14:14;16.50;99.90
7936;DHT22;4013;49.744;8.118;2022-09-09T06:16:43;16.60;99.90
7936;DHT22;4013;49.744;8.118;2022-09-09T06:19:10;16.70;99.90
7936;DHT22;4013;49.744;8.118;2022-09-09T06:21:38;16.80;99.90
7936;DHT22;4013;49.744;8.118;2022-09-09T06:24:06;16.80;99.90
7936;DHT22;4013;49.744;8.118;2022-09-09T06:26:35;17.00;99.90
7936;DHT22;4013;49.744;8.118;2022-09-09T06:29:04;17.00;99.90
7936;DHT22;4013;49.744;8.118;2022-09-09T06:31:32;17.00;99.90
7936;DHT22;4013;49.744;8.118;2022-09-09T06:34:00;16.90;99.90
7936;DHT22;4013;49.744;8.118;2022-09-09T06:36:29;16.90;99.90
7936;DHT22;4013;49.744;8.118;2022-09-09T06:38:56;16.90;99.90
7936;DHT22;4013;49.744;8.118;2022-09-09T06:41:25;16.80;99.90
7936;DHT22;4013;49.744;8.118;2022-09-09T06:43:52;16.80;99.90
7936;DHT22;4013;49.744;8.118;2022-09-09T06:46:24;16.70;99.90
7936;DHT22;4013;49.744;8.118;2022-09-09T06:48:54;16.70;99.90
7936;DHT22;4013;49.744;8.118;2022-09-09T06:51:26;16.70;99.90
7936;DHT22;4013;49.744;8.118;2022-09-09T06:53:54;16.80;99.90
7936;DHT22;4013;49.744;8.118;2022-09-09T06:56:23;16.80;99.90
7936;DHT22;4013;49.744;8.118;2022-09-09T06:58:52;17.00;99.90
7936;DHT22;4013;49.744;8.118;2022-09-09T07:01:22;16.90;99.90
7936;DHT22;4013;49.744;8.118;2022-09-09T07:03:51;17.00;99.90
7936;DHT22;4013;49.744;8.118;2022-09-09T07:06:20;17.00;99.90
7936;DHT22;4013;49.744;8.118;2022-09-09T07:08:51;16.90;99.90
7936;DHT22;4013;49.744;8.118;2022-09-09T07:11:19;16.90;99.90
7936;DHT22;4013;49.744;8.118;2022-09-09T07:13:47;17.00;99.90
7936;DHT22;4013;49.744;8.118;2022-09-09T07:16:16;17.00;99.90
7936;DHT22;4013;49.744;8.118;2022-09-09T07:18:45;17.10;99.90
7936;DHT22;4013;49.744;8.118;2022-09-09T07:21:13;17.30;99.90
7936;DHT22;4013;49.744;8.118;2022-09-09T07:23:41;17.30;99.90
7936;DHT22;4013;49.744;8.118;2022-09-09T07:26:09;17.50;99.90
7936;DHT22;4013;49.744;8.118;2022-09-09T07:28:36;17.60;99.90
7936;DHT22;4013;49.744;8.118;2022-09-09T07:31:05;17.60;99.90
7936;DHT22;4013;49.744;8.118;2022-09-09T07:33:34;17.70;99.90
7936;DHT22;4013;49.744;8.118;2022-09-09T07:36:07;17.90;99.90
7936;DHT22;4013;49.744;8.118;2022-09-09T07:38:38;18.00;99.90
7936;DHT22;4013;49.744;8.118;2022-09-09T07:41:07;18.00;99.90
7936;DHT22;4013;49.744;8.118;2022-09-09T07:43:37;17.90;99.90
7936;DHT22;4013;49.744;8.118;2022-09-09T07:46:04;17.80;99.90
7936;DHT22;4013;49.744;8.118;2022-09-09T07:48:31;17.80;99.90
7936;DHT22;4013;49.744;8.118;2022-09-09T07:51:08;17.80;99.90
7936;DHT22;4013;49.744;8.118;2022-09-09T07:53:36;17.90;99.90
7936;DHT22;4013;49.744;8.118;2022-09-09T07:56:06;17.90;99.90
7936;DHT22;4013;49.744;8.118;2022-09-09T07:58:35;17.90;99.90
7936;DHT22;4013;49.744;8.118;2022-09-09T08:01:06;18.00;99.90
7936;DHT22;4013;49.744;8.118;2022-09-09T08:03:34;18.10;99.90
7936;DHT22;4013;49.744;8.118;2022-09-09T08:06:02;18.10;99.90
7936;DHT22;4013;49.744;8.118;2022-09-09T08:08:30;18.20;99.90
7936;DHT22;4013;49.744;8.118;2022-09-09T08:11:06;18.40;99.90
7936;DHT22;4013;49.744;8.118;2022-09-09T08:13:35;18.60;99.90
7936;DHT22;4013;49.744;8.118;2022-09-09T08:16:07;18.60;99.90
7936;DHT22;4013;49.744;8.118;2022-09-09T08:18:34;18.60;99.90
7936;DHT22;4013;49.744;8.118;2022-09-09T08:21:08;18.60;99.90
7936;DHT22;4013;49.744;8.118;2022-09-09T08:23:39;18.70;99.90
7936;DHT22;4013;49.744;8.118;2022-09-09T08:26:10;18.60;99.90
7936;DHT22;4013;49.744;8.118;2022-09-09T08:28:38;18.60;99.90
7936;DHT22;4013;49.744;8.118;2022-09-09T08:31:07;18.70;99.90
7936;DHT22;4013;49.744;8.118;2022-09-09T08:33:34;18.90;99.90
7936;DHT22;4013;49.744;8.118;2022-09-09T08:36:04;19.00;99.90
7936;DHT22;4013;49.744;8.118;2022-09-09T08:38:31;19.10;99.90
7936;DHT22;4013;49.744;8.118;2022-09-09T08:44:03;19.00;99.90
7936;DHT22;4013;49.744;8.118;2022-09-09T08:46:37;18.90;99.90
7936;DHT22;4013;49.744;8.118;2022-09-09T08:49:18;18.80;99.90
7936;DHT22;4013;49.744;8.118;2022-09-09T08:51:46;18.90;99.90
7936;DHT22;4013;49.744;8.118;2022-09-09T08:54:15;19.00;99.90
7936;DHT22;4013;49.744;8.118;2022-09-09T08:56:42;19.10;99.90
7936;DHT22;4013;49.744;8.118;2022-09-09T08:59:13;19.10;99.90
7936;DHT22;4013;49.744;8.118;2022-09-09T09:01:56;19.00;99.90
7936;DHT22;4013;49.744;8.118;2022-09-09T09:04:34;19.10;99.90
7936;DHT22;4013;49.744;8.118;2022-09-09T09:07:09;19.00;99.90
7936;DHT22;4013;49.744;8.118;2022-09-09T09:09:46;18.90;99.90
7936;DHT22;4013;49.744;8.118;2022-09-09T09:12:18;18.80;99.90
7936;DHT22;4013;49.744;8.118;2022-09-09T09:14:48;18.80;99.90
7936;DHT22;4013;49.744;8.118;2022-09-09T09:17:17;18.90;99.90
7936;DHT22;4013;49.744;8.118;2022-09-09T09:19:46;19.00;99.90
7936;DHT22;4013;49.744;8.118;2022-09-09T09:22:18;19.20;99.90
7936;DHT22;4013;49.744;8.118;2022-09-09T09:24:52;19.30;99.90
7936;DHT22;4013;49.744;8.118;2022-09-09T09:27:27;19.40;99.90
7936;DHT22;4013;49.744;8.118;2022-09-09T09:30:00;19.40;99.90
7936;DHT22;4013;49.744;8.118;2022-09-09T09:32:30;19.50;99.90
7936;DHT22;4013;49.744;8.118;2022-09-09T09:35:02;19.60;99.90
7936;DHT22;4013;49.744;8.118;2022-09-09T09:37:34;19.80;99.90
7936;DHT22;4013;49.744;8.118;2022-09-09T09:40:09;19.90;99.90
7936;DHT22;4013;49.744;8.118;2022-09-09T09:42:36;20.00;99.90
7936;DHT22;4013;49.744;8.118;2022-09-09T09:45:17;20.00;99.90
7936;DHT22;4013;49.744;8.118;2022-09-09T09:48:01;20.20;99.90
7936;DHT22;4013;49.744;8.118;2022-09-09T09:50:29;20.20;99.90
7936;DHT22;4013;49.744;8.118;2022-09-09T09:52:58;20.30;99.90
7936;DHT22;4013;49.744;8.118;2022-09-09T09:55:26;20.40;99.90
7936;DHT22;4013;49.744;8.118;2022-09-09T09:58:01;20.40;99.90
7936;DHT22;4013;49.744;8.118;2022-09-09T10:00:30;20.60;99.90
7936;DHT22;4013;49.744;8.118;2022-09-09T10:02:59;20.70;99.90
7936;DHT22;4013;49.744;8.118;2022-09-09T10:05:27;20.70;99.90
7936;DHT22;4013;49.744;8.118;2022-09-09T10:08:02;20.60;99.90
7936;DHT22;4013;49.744;8.118;2022-09-09T10:10:40;20.60;99.90
7936;DHT22;4013;49.744;8.118;2022-09-09T10:13:13;20.60;99.90
7936;DHT22;4013;49.744;8.118;2022-09-09T10:15:48;20.60;99.90
7936;DHT22;4013;49.744;8.118;2022-09-09T10:18:28;20.40;99.90
7936;DHT22;4013;49.744;8.118;2022-09-09T10:21:05;20.20;99.90
7936;DHT22;4013;49.744;8.118;2022-09-09T10:23:48;20.00;99.90
7936;DHT22;4013;49.744;8.118;2022-09-09T10:26:31;19.80;99.90
7936;DHT22;4013;49.744;8.118;2022-09-09T10:29:10;19.60;99.90
7936;DHT22;4013;49.744;8.118;2022-09-09T10:31:49;19.60;99.90
7936;DHT22;4013;49.744;8.118;2022-09-09T10:34:27;19.70;99.90
7936;DHT22;4013;49.744;8.118;2022-09-09T10:36:58;19.80;99.90
7936;DHT22;4013;49.744;8.118;2022-09-09T10:39:33;19.90;99.90
7936;DHT22;4013;49.744;8.118;2022-09-09T10:42:05;20.00;99.90
7936;DHT22;4013;49.744;8.118;2022-09-09T10:44:47;20.10;99.90
7936;DHT22;4013;49.744;8.118;2022-09-09T10:47:43;20.20;99.90
7936;DHT22;4013;49.744;8.118;2022-09-09T10:50:44;20.30;99.90
7936;DHT22;4013;49.744;8.118;2022-09-09T10:53:18;20.50;99.90
7936;DHT22;4013;49.744;8.118;2022-09-09T10:55:52;20.50;99.90
7936;DHT22;4013;49.744;8.118;2022-09-09T10:58:24;20.50;99.90
7936;DHT22;4013;49.744;8.118;2022-09-09T11:00:57;20.60;99.90
7936;DHT22;4013;49.744;8.118;2022-09-09T11:03:29;20.80;99.90
7936;DHT22;4013;49.744;8.118;2022-09-09T11:06:01;21.10;99.90
7936;DHT22;4013;49.744;8.118;2022-09-09T11:08:32;21.30;99.90
7936;DHT22;4013;49.744;8.118;2022-09-09T11:11:04;21.20;99.90
7936;DHT22;4013;49.744;8.118;2022-09-09T11:13:42;21.30;99.90
7936;DHT22;4013;49.744;8.118;2022-09-09T11:16:20;21.40;99.90
7936;DHT22;4013;49.744;8.118;2022-09-09T11:18:56;21.30;99.90
7936;DHT22;4013;49.744;8.118;2022-09-09T11:21:28;21.30;99.90
7936;DHT22;4013;49.744;8.118;2022-09-09T11:23:59;21.40;99.90
7936;DHT22;4013;49.744;8.118;2022-09-09T11:26:31;21.60;99.90
7936;DHT22;4013;49.744;8.118;2022-09-09T11:29:12;21.60;99.90
7936;DHT22;4013;49.744;8.118;2022-09-09T11:31:49;21.50;99.90
7936;DHT22;4013;49.744;8.118;2022-09-09T11:34:42;21.50;99.90
7936;DHT22;4013;49.744;8.118;2022-09-09T11:37:29;21.50;99.90
7936;DHT22;4013;49.744;8.118;2022-09-09T11:40:14;21.40;99.90
7936;DHT22;4013;49.744;8.118;2022-09-09T11:42:41;21.60;99.90
7936;DHT22;4013;49.744;8.118;2022-09-09T11:45:19;21.50;99.90
7936;DHT22;4013;49.744;8.118;2022-09-09T11:47:52;21.20;99.90
7936;DHT22;4013;49.744;8.118;2022-09-09T11:50:39;21.00;99.90
7936;DHT22;4013;49.744;8.118;2022-09-09T11:53:19;20.90;99.90
7936;DHT22;4013;49.744;8.118;2022-09-09T11:55:48;20.80;99.90
7936;DHT22;4013;49.744;8.118;2022-09-09T11:58:28;20.70;99.90
7936;DHT22;4013;49.744;8.118;2022-09-09T12:00:58;20.60;99.90
7936;DHT22;4013;49.744;8.118;2022-09-09T12:03:43;20.50;99.90
7936;DHT22;4013;49.744;8.118;2022-09-09T12:06:15;20.40;99.90
7936;DHT22;4013;49.744;8.118;2022-09-09T12:08:49;20.20;99.90
7936;DHT22;4013;49.744;8.118;2022-09-09T12:11:25;19.40;99.90
7936;DHT22;4013;49.744;8.118;2022-09-09T12:13:54;18.70;99.90
7936;DHT22;4013;49.744;8.118;2022-09-09T12:16:32;18.10;99.90
7936;DHT22;4013;49.744;8.118;2022-09-09T12:19:14;17.80;99.90
7936;DHT22;4013;49.744;8.118;2022-09-09T12:21:48;17.50;99.90
7936;DHT22;4013;49.744;8.118;2022-09-09T12:24:22;17.30;99.90
7936;DHT22;4013;49.744;8.118;2022-09-09T12:26:58;17.10;99.90
7936;DHT22;4013;49.744;8.118;2022-09-09T12:29:32;17.00;99.90
7936;DHT22;4013;49.744;8.118;2022-09-09T12:32:07;17.00;99.90
7936;DHT22;4013;49.744;8.118;2022-09-09T12:34:39;17.00;99.90
7936;DHT22;4013;49.744;8.118;2022-09-09T12:37:15;16.90;99.90
7936;DHT22;4013;49.744;8.118;2022-09-09T12:39:47;16.90;99.90
7936;DHT22;4013;49.744;8.118;2022-09-09T12:42:17;16.90;99.90
7936;DHT22;4013;49.744;8.118;2022-09-09T12:44:52;16.90;99.90
7936;DHT22;4013;49.744;8.118;2022-09-09T12:47:20;16.90;99.90
7936;DHT22;4013;49.744;8.118;2022-09-09T12:49:48;16.90;99.90
7936;DHT22;4013;49.744;8.118;2022-09-09T12:52:23;16.80;99.90
7936;DHT22;4013;49.744;8.118;2022-09-09T12:54:52;16.80;99.90
7936;DHT22;4013;49.744;8.118;2022-09-09T12:57:20;16.80;99.90
7936;DHT22;4013;49.744;8.118;2022-09-09T12:59:48;16.90;99.90
7936;DHT22;4013;49.744;8.118;2022-09-09T13:02:20;16.90;99.90
7936;DHT22;4013;49.744;8.118;2022-09-09T13:04:48;17.20;99.90
7936;DHT22;4013;49.744;8.118;2022-09-09T13:07:18;17.80;99.90
7936;DHT22;4013;49.744;8.118;2022-09-09T13:09:46;19.00;99.90
7936;DHT22;4013;49.744;8.118;2022-09-09T13:12:16;20.50;99.90
7936;DHT22;4013;49.744;8.118;2022-09-09T13:14:46;21.40;99.90
7936;DHT22;4013;49.744;8.118;2022-09-09T13:17:20;21.80;99.90
7936;DHT22;4013;49.744;8.118;2022-09-09T13:19:48;21.50;99.90
7936;DHT22;4013;49.744;8.118;2022-09-09T13:22:26;20.60;99.90
7936;DHT22;4013;49.744;8.118;2022-09-09T13:25:00;19.90;99.90
7936;DHT22;4013;49.744;8.118;2022-09-09T13:27:29;19.70;99.90
7936;DHT22;4013;49.744;8.118;2022-09-09T13:29:56;19.50;99.90
7936;DHT22;4013;49.744;8.118;2022-09-09T13:32:25;19.50;99.90
7936;DHT22;4013;49.744;8.118;2022-09-09T13:34:53;19.60;99.90
7936;DHT22;4013;49.744;8.118;2022-09-09T13:37:24;19.90;99.90
7936;DHT22;4013;49.744;8.118;2022-09-09T13:39:54;20.20;99.90
7936;DHT22;4013;49.744;8.118;2022-09-09T13:42:25;20.40;99.90
7936;DHT22;4013;49.744;8.118;2022-09-09T13:44:53;20.50;99.90
7936;DHT22;4013;49.744;8.118;2022-09-09T13:47:26;20.50;99.90
7936;DHT22;4013;49.744;8.118;2022-09-09T13:49:54;20.40;99.90
7936;DHT22;4013;49.744;8.118;2022-09-09T13:52:22;20.20;99.90
7936;DHT22;4013;49.744;8.118;2022-09-09T13:54:52;20.10;99.90
7936;DHT22;4013;49.744;8.118;2022-09-09T13:57:21;20.00;99.90
7936;DHT22;4013;49.744;8.118;2022-09-09T13:59:48;19.90;99.90
7936;DHT22;4013;49.744;8.118;2022-09-09T14:02:16;19.80;99.90
7936;DHT22;4013;49.744;8.118;2022-09-09T14:04:43;19.80;99.90
7936;DHT22;4013;49.744;8.118;2022-09-09T14:07:12;19.90;99.90
7936;DHT22;4013;49.744;8.118;2022-09-09T14:09:41;19.80;99.90
7936;DHT22;4013;49.744;8.118;2022-09-09T14:12:09;19.80;99.90
7936;DHT22;4013;49.744;8.118;2022-09-09T14:14:37;19.80;99.90
7936;DHT22;4013;49.744;8.118;2022-09-09T14:17:04;19.70;99.90
7936;DHT22;4013;49.744;8.118;2022-09-09T14:19:32;19.70;99.90
7936;DHT22;4013;49.744;8.118;2022-09-09T14:22:00;19.70;99.90
7936;DHT22;4013;49.744;8.118;2022-09-09T14:24:27;19.70;99.90
7936;DHT22;4013;49.744;8.118;2022-09-09T14:26:56;19.60;99.90
7936;DHT22;4013;49.744;8.118;2022-09-09T14:29:23;19.60;99.90
7936;DHT22;4013;49.744;8.118;2022-09-09T14:31:51;19.60;99.90
7936;DHT22;4013;49.744;8.118;2022-09-09T14:34:18;19.50;99.90
7936;DHT22;4013;49.744;8.118;2022-09-09T14:36:45;19.50;99.90
7936;DHT22;4013;49.744;8.118;2022-09-09T14:39:12;19.40;99.90
7936;DHT22;4013;49.744;8.118;2022-09-09T14:41:39;19.40;99.90
7936;DHT22;4013;49.744;8.118;2022-09-09T14:44:07;19.40;99.90
7936;DHT22;4013;49.744;8.118;2022-09-09T14:46:35;19.40;99.90
7936;DHT22;4013;49.744;8.118;2022-09-09T14:49:02;19.50;99.90
7936;DHT22;4013;49.744;8.118;2022-09-09T14:51:30;19.40;99.90
7936;DHT22;4013;49.744;8.118;2022-09-09T14:53:58;19.40;99.90
7936;DHT22;4013;49.744;8.118;2022-09-09T14:56:27;19.20;99.90
7936;DHT22;4013;49.744;8.118;2022-09-09T14:58:56;19.20;99.90
7936;DHT22;4013;49.744;8.118;2022-09-09T15:01:25;19.10;99.90
7936;DHT22;4013;49.744;8.118;2022-09-09T15:03:54;19.10;99.90
7936;DHT22;4013;49.744;8.118;2022-09-09T15:06:24;19.10;99.90
7936;DHT22;4013;49.744;8.118;2022-09-09T15:08:53;19.10;99.90
7936;DHT22;4013;49.744;8.118;2022-09-09T15:11:25;19.10;99.90
7936;DHT22;4013;49.744;8.118;2022-09-09T15:13:54;19.20;99.90
7936;DHT22;4013;49.744;8.118;2022-09-09T15:16:24;19.30;99.90
7936;DHT22;4013;49.744;8.118;2022-09-09T15:18:55;19.30;99.90
7936;DHT22;4013;49.744;8.118;2022-09-09T15:21:24;19.30;99.90
7936;DHT22;4013;49.744;8.118;2022-09-09T15:23:52;19.30;99.90
7936;DHT22;4013;49.744;8.118;2022-09-09T15:26:19;19.40;99.90
7936;DHT22;4013;49.744;8.118;2022-09-09T15:28:47;19.40;99.90
7936;DHT22;4013;49.744;8.118;2022-09-09T15:31:16;19.40;99.90
7936;DHT22;4013;49.744;8.118;2022-09-09T15:33:47;19.30;99.90
7936;DHT22;4013;49.744;8.118;2022-09-09T15:36:18;19.30;99.90
7936;DHT22;4013;49.744;8.118;2022-09-09T15:38:45;19.30;99.90
7936;DHT22;4013;49.744;8.118;2022-09-09T15:41:13;19.30;99.90
7936;DHT22;4013;49.744;8.118;2022-09-09T15:43:43;19.20;99.90
7936;DHT22;4013;49.744;8.118;2022-09-09T15:46:23;19.20;99.90
7936;DHT22;4013;49.744;8.118;2022-09-09T15:48:51;19.20;99.90
7936;DHT22;4013;49.744;8.118;2022-09-09T15:51:20;19.10;99.90
7936;DHT22;4013;49.744;8.118;2022-09-09T15:53:47;19.10;99.90
7936;DHT22;4013;49.744;8.118;2022-09-09T15:56:14;19.20;99.90
7936;DHT22;4013;49.744;8.118;2022-09-09T15:58:41;19.10;99.90
7936;DHT22;4013;49.744;8.118;2022-09-09T16:01:10;19.10;99.90
7936;DHT22;4013;49.744;8.118;2022-09-09T16:03:39;19.00;99.90
7936;DHT22;4013;49.744;8.118;2022-09-09T16:06:08;19.00;99.90
7936;DHT22;4013;49.744;8.118;2022-09-09T16:08:40;19.00;99.90
7936;DHT22;4013;49.744;8.118;2022-09-09T16:11:09;19.00;99.90
7936;DHT22;4013;49.744;8.118;2022-09-09T16:13:37;18.90;99.90
7936;DHT22;4013;49.744;8.118;2022-09-09T16:16:06;18.90;99.90
7936;DHT22;4013;49.744;8.118;2022-09-09T16:18:34;18.90;99.90
7936;DHT22;4013;49.744;8.118;2022-09-09T16:21:02;18.90;99.90
7936;DHT22;4013;49.744;8.118;2022-09-09T16:23:31;18.90;99.90
7936;DHT22;4013;49.744;8.118;2022-09-09T16:26:00;18.90;99.90
7936;DHT22;4013;49.744;8.118;2022-09-09T16:28:27;19.00;99.90
7936;DHT22;4013;49.744;8.118;2022-09-09T16:30:55;19.00;99.90